createdAt,value
2019-04-26T00:01:03.543Z,1.05
2019-04-26T00:05:10.243Z,1.10
2019-04-26T00:09:31.293Z,1.10
2019-04-26T00:13:54.489Z,0.98
2019-04-26T00:18:00.567Z,0.93
2019-04-26T00:22:06.641Z,1.20
2019-04-26T00:26:13.426Z,0.90
2019-04-26T00:30:19.204Z,1.00
2019-04-26T00:34:24.455Z,0.90
2019-04-26T00:38:29.887Z,1.02
2019-04-26T00:42:36.546Z,0.88
2019-04-26T00:46:45.998Z,1.30
2019-04-26T00:50:52.007Z,0.93
2019-04-26T00:54:59.362Z,0.93
2019-04-26T00:59:05.063Z,1.07
2019-04-26T01:03:10.024Z,1.00
2019-04-26T01:07:15.679Z,0.93
2019-04-26T01:11:21.744Z,1.15
2019-04-26T01:15:27.289Z,1.47
2019-04-26T01:19:33.168Z,1.10
2019-04-26T01:23:41.455Z,1.10
2019-04-26T01:27:46.371Z,1.40
2019-04-26T01:32:01.408Z,1.10
2019-04-26T01:36:13.416Z,0.90
2019-04-26T01:40:18.453Z,0.93
2019-04-26T01:44:40.777Z,0.90
2019-04-26T01:48:54.850Z,1.10
2019-04-26T01:53:00.464Z,1.17
2019-04-26T01:57:06.270Z,1.00
2019-04-26T02:01:30.276Z,1.10
2019-04-26T02:05:35.480Z,1.10
2019-04-26T02:09:40.369Z,1.40
2019-04-26T02:13:45.972Z,0.95
2019-04-26T02:17:52.356Z,1.10
2019-04-26T02:22:19.864Z,1.32
2019-04-26T02:26:35.502Z,1.40
2019-04-26T02:30:40.512Z,0.95
2019-04-26T02:34:45.630Z,1.10
2019-04-26T02:38:51.958Z,1.20
2019-04-26T02:42:57.039Z,1.27
2019-04-26T02:47:34.587Z,1.70
2019-04-26T02:51:46.196Z,1.52
2019-04-26T02:56:16.253Z,1.50
2019-04-26T03:00:21.454Z,1.52
2019-04-26T03:04:30.514Z,1.30
2019-04-26T03:08:39.347Z,1.60
2019-04-26T03:12:47.024Z,1.20
2019-04-26T03:17:17.236Z,1.62
2019-04-26T03:21:34.107Z,1.70
2019-04-26T03:25:45.330Z,1.87
2019-04-26T03:30:19.290Z,1.70
2019-04-26T03:34:26.082Z,1.90
2019-04-26T03:39:10.503Z,1.92
2019-04-26T03:43:39.083Z,1.80
2019-04-26T03:47:54.277Z,1.37
2019-04-26T03:52:55.680Z,1.85
2019-04-26T03:57:32.504Z,2.00
2019-04-26T04:01:47.105Z,1.95
2019-04-26T04:05:55.664Z,2.08
2019-04-26T04:10:06.841Z,2.10
2019-04-26T04:14:28.710Z,2.27
2019-04-26T04:18:36.813Z,2.25
2019-04-26T04:22:47.896Z,1.95
2019-04-26T04:27:33.724Z,2.17
2019-04-26T04:31:43.582Z,2.45
2019-04-26T04:35:54.301Z,1.70
2019-04-26T04:40:24.389Z,1.80
2019-04-26T04:45:22.278Z,1.80
2019-04-26T04:49:59.750Z,2.10
2019-04-26T04:54:19.412Z,1.70
2019-04-26T04:58:31.048Z,2.08
2019-04-26T05:03:00.333Z,2.02
2019-04-26T05:07:29.676Z,1.82
2019-04-26T05:11:51.984Z,2.22
2019-04-26T05:21:05.214Z,2.05
2019-04-26T05:26:13.912Z,2.27
2019-04-26T05:31:01.725Z,1.90
2019-04-26T05:35:22.099Z,1.92
2019-04-26T05:39:40.340Z,2.72
2019-04-26T05:44:13.908Z,2.20
2019-04-26T05:48:58.692Z,2.60
2019-04-26T05:54:18.323Z,1.90
2019-04-26T05:58:52.867Z,2.22
2019-04-26T06:03:30.327Z,2.20
2019-04-26T06:08:31.169Z,1.77
2019-04-26T06:12:58.965Z,1.95
2019-04-26T06:17:35.627Z,2.10
2019-04-26T06:22:22.552Z,1.72
2019-04-26T06:27:07.860Z,1.82
2019-04-26T06:31:28.029Z,1.80
2019-04-26T06:35:36.875Z,1.92
2019-04-26T06:40:04.473Z,1.82
2019-04-26T06:44:17.989Z,1.65
2019-04-26T06:48:44.967Z,1.80
2019-04-26T06:53:11.131Z,1.70
2019-04-26T06:58:03.178Z,1.80
2019-04-26T07:02:18.392Z,1.60
2019-04-26T07:06:34.861Z,1.92
2019-04-26T07:11:33.716Z,1.87
2019-04-26T07:15:52.386Z,1.60
2019-04-26T07:20:42.348Z,2.20
2019-04-26T07:25:33.329Z,2.30
2019-04-26T07:30:30.193Z,2.22
2019-04-26T07:34:49.033Z,2.37
2019-04-26T07:39:26.889Z,2.20
2019-04-26T07:44:33.159Z,2.05
2019-04-26T07:49:30.075Z,2.35
2019-04-26T07:53:48.313Z,2.00
2019-04-26T07:58:46.092Z,2.30
2019-04-26T08:03:08.709Z,2.12
2019-04-26T08:07:22.443Z,1.87
2019-04-26T08:11:36.183Z,1.82
2019-04-26T08:15:53.704Z,2.10
2019-04-26T08:20:20.490Z,2.08
2019-04-26T08:24:28.674Z,2.05
2019-04-26T08:28:36.436Z,1.60
2019-04-26T08:32:48.905Z,2.10
2019-04-26T08:37:19.293Z,1.80
2019-04-26T08:41:25.180Z,2.00
2019-04-26T08:46:01.884Z,1.60
2019-04-26T08:50:09.751Z,1.80
2019-04-26T08:54:21.244Z,1.47
2019-04-26T08:58:29.787Z,1.57
2019-04-26T09:02:50.841Z,1.40
2019-04-26T09:07:13.175Z,1.55
2019-04-26T09:15:51.547Z,1.50
2019-04-26T09:19:58.067Z,1.65
2019-04-26T09:24:24.934Z,1.57
2019-04-26T09:28:46.051Z,1.55
2019-04-26T09:32:58.234Z,1.60
2019-04-26T09:37:04.379Z,1.25
2019-04-26T09:41:09.352Z,1.30
2019-04-26T09:45:48.105Z,1.62
2019-04-26T09:50:04.940Z,1.80
2019-04-26T09:54:09.917Z,1.95
2019-04-26T09:58:14.796Z,2.08
2019-04-26T10:02:19.753Z,2.10
2019-04-26T10:06:26.084Z,2.25
2019-04-26T10:10:35.309Z,2.90
2019-04-26T10:14:46.417Z,3.15
2019-04-26T10:18:58.337Z,2.77
2019-04-26T10:23:01.759Z,3.05
2019-04-26T10:27:06.740Z,2.55
2019-04-26T10:31:13.533Z,2.60
2019-04-26T10:35:21.799Z,2.20
2019-04-26T10:39:28.480Z,2.77
2019-04-26T10:43:31.553Z,2.40
2019-04-26T10:47:38.396Z,2.47
2019-04-26T10:51:44.753Z,2.87
2019-04-26T10:56:20.199Z,2.12
2019-04-26T11:00:33.320Z,2.37
2019-04-26T11:04:41.479Z,2.10
2019-04-26T11:08:44.727Z,2.10
2019-04-26T11:12:49.527Z,2.08
2019-04-26T11:16:54.912Z,1.90
2019-04-26T11:20:59.804Z,1.65
2019-04-26T11:25:04.980Z,1.62
2019-04-26T11:29:10.269Z,1.22
2019-04-26T11:33:15.248Z,1.10
2019-04-26T11:37:20.204Z,1.20
2019-04-26T11:41:25.212Z,1.00
2019-04-26T11:45:31.192Z,0.90
2019-04-26T11:49:37.305Z,1.00
2019-04-26T11:53:44.676Z,1.00
2019-04-26T11:57:51.648Z,1.00
2019-04-26T12:01:56.880Z,0.85
2019-04-26T12:06:36.828Z,1.22
2019-04-26T12:10:44.325Z,0.78
2019-04-26T12:14:48.251Z,1.05
2019-04-26T12:18:53.153Z,1.00
2019-04-26T12:22:57.997Z,0.72
2019-04-26T12:27:02.912Z,0.57
2019-04-26T12:31:07.799Z,0.72
2019-04-26T12:35:13.463Z,0.50
2019-04-26T12:39:19.373Z,0.60
2019-04-26T12:43:26.047Z,0.20
2019-04-26T12:47:40.045Z,0.50
2019-04-26T12:51:47.344Z,0.40
2019-04-26T12:55:53.647Z,0.50
2019-04-26T13:00:01.748Z,0.40
2019-04-26T13:04:06.179Z,0.40
2019-04-26T13:08:13.095Z,0.60
2019-04-26T13:12:35.871Z,0.53
2019-04-26T13:16:57.217Z,0.60
2019-04-26T13:21:02.877Z,0.50
2019-04-26T13:25:15.340Z,0.60
2019-04-26T13:29:14.738Z,0.50
2019-04-26T13:33:19.558Z,0.40
2019-04-26T13:37:26.159Z,0.40
2019-04-26T13:41:31.065Z,0.50
2019-04-26T13:45:44.438Z,0.40
2019-04-26T13:49:57.323Z,0.53
2019-04-26T13:54:02.233Z,0.50
2019-04-26T13:58:07.105Z,0.50
2019-04-26T14:02:12.260Z,0.25
2019-04-26T14:06:17.572Z,0.30
2019-04-26T14:10:24.077Z,0.40
2019-04-26T14:14:30.277Z,0.30
2019-04-26T14:18:39.103Z,0.65
2019-04-26T14:22:49.453Z,0.47
2019-04-26T14:31:01.408Z,0.40
2019-04-26T14:35:06.583Z,0.42
2019-04-26T14:39:14.937Z,0.40
2019-04-26T14:43:18.403Z,0.30
2019-04-26T14:47:26.481Z,0.53
2019-04-26T14:51:31.171Z,0.30
2019-04-26T14:55:36.075Z,0.40
2019-04-26T14:59:47.664Z,0.53
2019-04-26T15:04:10.116Z,0.30
2019-04-26T15:12:19.421Z,0.55
2019-04-26T15:16:24.482Z,0.37
2019-04-26T15:20:29.596Z,0.40
2019-04-26T15:24:38.463Z,0.37
2019-04-26T15:28:43.655Z,0.40
2019-04-26T15:32:47.685Z,0.30
2019-04-26T15:36:54.234Z,0.60
2019-04-26T15:41:27.335Z,0.40
2019-04-26T15:45:54.172Z,0.53
2019-04-26T15:50:09.753Z,0.50
2019-04-26T15:54:10.507Z,0.50
2019-04-26T15:58:15.419Z,0.47
2019-04-26T16:02:24.629Z,0.60
2019-04-26T16:06:26.966Z,0.50
2019-04-26T16:10:36.804Z,0.60
2019-04-26T16:14:39.327Z,0.90
2019-04-26T16:18:44.386Z,0.85
2019-04-26T16:22:49.389Z,0.47
2019-04-26T16:26:56.253Z,0.80
2019-04-26T16:31:26.154Z,0.70
2019-04-26T16:35:32.410Z,0.68
2019-04-26T16:39:38.916Z,0.93
2019-04-26T16:43:50.917Z,0.60
2019-04-26T16:47:54.088Z,0.68
2019-04-26T16:52:05.081Z,0.50
2019-04-26T16:56:06.676Z,0.57
2019-04-26T17:00:16.214Z,0.57
2019-04-26T17:04:29.066Z,0.60
2019-04-26T17:08:27.193Z,0.75
2019-04-26T17:12:33.157Z,0.57
2019-04-26T17:16:39.613Z,0.70
2019-04-26T17:20:48.015Z,0.70
2019-04-26T17:24:59.154Z,0.60
2019-04-26T17:29:04.067Z,0.90
2019-04-26T17:33:09.032Z,0.78
2019-04-26T17:37:17.304Z,0.80
2019-04-26T17:41:20.960Z,0.72
2019-04-26T17:45:28.393Z,0.85
2019-04-26T17:49:34.694Z,0.72
2019-04-26T17:53:48.153Z,0.78
2019-04-26T17:58:09.669Z,0.75
2019-04-26T18:02:01.413Z,0.80
2019-04-26T18:06:09.552Z,0.90
2019-04-26T18:10:14.788Z,1.05
2019-04-26T18:14:21.464Z,0.90
2019-04-26T18:18:49.911Z,0.70
2019-04-26T18:22:55.159Z,0.80
2019-04-26T18:27:00.599Z,0.78
2019-04-26T18:31:07.716Z,0.90
2019-04-26T18:35:16.658Z,1.15
2019-04-26T18:39:22.752Z,1.15
2019-04-26T18:43:27.255Z,1.10
2019-04-26T18:47:36.685Z,1.00
2019-04-26T18:51:48.136Z,1.12
2019-04-26T18:55:50.974Z,1.40
2019-04-26T18:59:55.856Z,1.30
2019-04-26T19:04:09.855Z,1.37
2019-04-26T19:08:09.746Z,1.45
2019-04-26T19:12:18.469Z,1.27
2019-04-26T19:16:31.963Z,1.52
2019-04-26T19:20:39.274Z,1.30
2019-04-26T19:24:44.515Z,1.30
2019-04-26T19:28:49.439Z,1.20
2019-04-26T19:32:55.773Z,1.30
2019-04-26T19:37:01.524Z,1.17
2019-04-26T19:41:07.711Z,1.20
2019-04-26T19:45:19.938Z,1.20
2019-04-26T19:49:42.852Z,1.00
2019-04-26T19:54:02.099Z,1.32
2019-04-26T19:58:20.098Z,1.07
2019-04-26T20:02:22.514Z,1.12
2019-04-26T20:06:27.592Z,1.37
2019-04-26T20:10:34.535Z,1.30
2019-04-26T20:14:47.129Z,1.22
2019-04-26T20:18:45.615Z,1.22
2019-04-26T20:22:51.484Z,1.20
2019-04-26T20:26:57.459Z,1.27
2019-04-26T20:31:16.732Z,1.17
2019-04-26T20:35:26.939Z,1.07
2019-04-26T20:39:29.387Z,1.10
2019-04-26T20:43:36.248Z,1.40
2019-04-26T20:47:41.664Z,1.10
2019-04-26T20:51:47.187Z,1.02
2019-04-26T20:55:54.988Z,1.22
2019-04-26T21:00:03.324Z,1.25
2019-04-26T21:04:08.189Z,1.00
2019-04-26T21:08:13.300Z,0.95
2019-04-26T21:12:18.505Z,1.37
2019-04-26T21:16:24.703Z,1.40
2019-04-26T21:20:32.729Z,1.40
2019-04-26T21:24:39.124Z,1.35
2019-04-26T21:28:56.534Z,1.60
2019-04-26T21:33:15.705Z,1.50
2019-04-26T21:37:31.491Z,1.27
2019-04-26T21:41:36.449Z,1.42
2019-04-26T21:45:41.460Z,1.30
2019-04-26T21:49:46.420Z,1.45
2019-04-26T21:53:52.948Z,1.50
2019-04-26T21:57:58.023Z,1.42
2019-04-26T22:02:03.377Z,1.57
2019-04-26T22:06:08.769Z,1.62
2019-04-26T22:10:23.526Z,1.70
2019-04-26T22:14:33.975Z,1.47
2019-04-26T22:18:50.469Z,1.32
2019-04-26T22:23:21.397Z,1.50
2019-04-26T22:27:27.195Z,1.55
2019-04-26T22:31:33.736Z,1.52
2019-04-26T22:35:39.175Z,1.50
2019-04-26T22:39:45.482Z,1.60
2019-04-26T22:43:59.535Z,2.05
2019-04-26T22:48:18.380Z,1.50
2019-04-26T22:52:18.545Z,1.65
2019-04-26T22:56:23.683Z,1.67
2019-04-26T23:00:33.123Z,1.57
2019-04-26T23:04:38.517Z,1.40
2019-04-26T23:08:43.851Z,1.52
2019-04-26T23:13:10.058Z,1.60
2019-04-26T23:17:34.931Z,1.67
2019-04-26T23:21:45.454Z,1.30
2019-04-26T23:25:49.409Z,1.42
2019-04-26T23:29:57.374Z,1.80
2019-04-26T23:34:02.864Z,1.55
2019-04-26T23:38:07.884Z,1.77
2019-04-26T23:42:16.461Z,1.32
2019-04-26T23:46:22.836Z,1.70
2019-04-26T23:50:29.408Z,1.62
2019-04-26T23:54:35.815Z,1.50
2019-04-26T23:58:40.305Z,1.57
